Darstellungsparameter: Aktuell verwendete Einstellungen:
Skalierung der Graphiken ... ?
xyx+y,   Skalierungsfaktor:      Skalierung: Modus: x, Faktor: 1
Darstellungszeitraum ... ?
Vom - - bis: - -   Zeitraum: 27.07.2019 - 29.07.2019
Min/Max/Avg-Anzeige ... ?
Zeige MMA aktuell
Zeige MMA Monat
Zeige MMA alles
Zeige --A aktuell
Zeige --A Monat
Zeige --A alles
Keine MMA-Anzeige
MMA:
Minimum Maximum Average (ber die Originaldaten)
MMA-Basis: 26.03.2019 - 28.04.2019
Quicknavigation für Darstellung... ?
Tage:      1T, 2T, 3T, 5T -1T -2T -3T -5T +1T +2T +3T +5T
Wochen: 1W, 2W, 3W -1W -2W -3W +1W +2W +3W
Monate: 1M, 3M, 6M -1M -3M -6M +1M +3M +6M
Jahre:    1J, 3J, 5J, 10J -1J -3J -5J -10J +1J +3J +5J +10J
Nutze für die Darstellung ... ?
Originaldaten oder Mittelwerte auf ...
Stundenbasis Tagesbasis Wochenbasis
Monatsbasis Jahresbasis      Datenbasis: Original-Daten
Darstellen als:
Statistik (Auto) Statistik J:M      Darstellung:
Zur Graphik,    zurück zur Übersicht aller Sensoren.
 
Tabellarische Datenbersicht: ?
 
Sensor: Nr:Datum:Temp:Abs-Feuchte:Windchill:Wind:
Aussen-T/F 1 27-07-2019 00:00:00 23.6 C 14.68 g/m*3 23.6 C 0 km/h
2 27-07-2019 00:05:00 23.4 C 14.51 g/m*3 23.4 C 0 km/h
3 27-07-2019 00:10:00 23.3 C 14.43 g/m*3 23.3 C 0 km/h
4 27-07-2019 00:15:00 23.3 C 14.64 g/m*3 23.3 C 0 km/h
5 27-07-2019 00:20:00 23.2 C 14.55 g/m*3 23.2 C 0 km/h
6 27-07-2019 00:25:00 23.2 C 14.55 g/m*3 23.2 C 0 km/h
7 27-07-2019 00:30:00 23.1 C 14.47 g/m*3 23.1 C 1.6 km/h
8 27-07-2019 00:35:00 23.1 C 14.68 g/m*3 23.1 C 4.8 km/h
9 27-07-2019 00:40:00 23 C 14.59 g/m*3 23 C 0 km/h
10 27-07-2019 00:45:00 22.9 C 14.51 g/m*3 22.9 C 0 km/h
11 27-07-2019 00:50:00 22.9 C 14.51 g/m*3 22.9 C 0 km/h
12 27-07-2019 00:55:00 22.8 C 14.63 g/m*3 22.8 C 0 km/h
13 27-07-2019 01:00:00 22.8 C 14.63 g/m*3 22.8 C 0 km/h
14 27-07-2019 01:05:00 22.7 C 14.55 g/m*3 22.7 C 0 km/h
15 27-07-2019 01:10:00 22.7 C 14.75 g/m*3 22.7 C 0 km/h
16 27-07-2019 01:15:00 22.6 C 14.66 g/m*3 22.6 C 0 km/h
17 27-07-2019 01:20:00 22.7 C 14.95 g/m*3 22.7 C 0 km/h
18 27-07-2019 01:25:00 22.7 C 14.75 g/m*3 22.7 C 0 km/h
19 27-07-2019 01:30:00 22.7 C 14.75 g/m*3 22.7 C 0 km/h
20 27-07-2019 01:35:00 22.7 C 14.75 g/m*3 22.7 C 0 km/h
21 27-07-2019 01:40:00 22.7 C 14.95 g/m*3 22.7 C 0 km/h
22 27-07-2019 01:45:00 22.6 C 14.87 g/m*3 22.6 C 0 km/h
23 27-07-2019 01:50:00 22.4 C 14.7 g/m*3 22.4 C 0 km/h
24 27-07-2019 01:55:00 22.3 C 14.61 g/m*3 22.3 C 0 km/h
25 27-07-2019 02:00:00 22.3 C 14.61 g/m*3 22.3 C 0 km/h
Sensor: Nr:Datum:Temp:Abs-Feuchte:Windchill:Wind:
Aussen-T/F 26 27-07-2019 02:05:00 22.3 C 14.41 g/m*3 22.3 C 0 km/h
27 27-07-2019 02:10:00 22.3 C 14.41 g/m*3 22.3 C 0 km/h
28 27-07-2019 02:15:00 22.3 C 14.81 g/m*3 22.3 C 0 km/h
29 27-07-2019 02:20:00 22.4 C 14.89 g/m*3 22.4 C 0 km/h
30 27-07-2019 02:25:00 22.4 C 15.09 g/m*3 22.4 C 0 km/h
31 27-07-2019 02:30:00 22.4 C 15.09 g/m*3 22.4 C 0 km/h
32 27-07-2019 02:35:00 22.4 C 15.09 g/m*3 22.4 C 0 km/h
33 27-07-2019 02:40:00 22.3 C 15.01 g/m*3 22.3 C 0 km/h
34 27-07-2019 02:45:00 22.3 C 15.01 g/m*3 22.3 C 0 km/h
35 27-07-2019 02:50:00 22.3 C 15.01 g/m*3 22.3 C 0 km/h
36 27-07-2019 02:55:00 22.3 C 15.01 g/m*3 22.3 C 0 km/h
37 27-07-2019 03:00:00 22.3 C 15.01 g/m*3 22.3 C 0 km/h
38 27-07-2019 03:05:00 22.3 C 15.01 g/m*3 22.3 C 1.6 km/h
39 27-07-2019 03:10:00 22.3 C 14.61 g/m*3 22.3 C 1.6 km/h
40 27-07-2019 03:15:00 22.4 C 14.7 g/m*3 22.4 C 0 km/h
41 27-07-2019 03:20:00 22.5 C 14.58 g/m*3 22.5 C 0 km/h
42 27-07-2019 03:25:00 22.6 C 14.46 g/m*3 22.6 C 0 km/h
43 27-07-2019 03:30:00 22.6 C 14.26 g/m*3 22.6 C 0 km/h
44 27-07-2019 03:35:00 22.8 C 14.02 g/m*3 22.8 C 3.2 km/h
45 27-07-2019 03:40:00 23.2 C 15.59 g/m*3 23.2 C 1.6 km/h
46 27-07-2019 03:45:00 23.1 C 16.12 g/m*3 23.1 C 0 km/h
47 27-07-2019 03:50:00 22.7 C 15.96 g/m*3 22.7 C 3.2 km/h
48 27-07-2019 03:55:00 22.3 C 15.8 g/m*3 22.3 C 3.2 km/h
49 27-07-2019 04:00:00 21.9 C 16.02 g/m*3 21.9 C 0 km/h
50 27-07-2019 04:05:00 21.7 C 16.02 g/m*3 21.7 C 0 km/h
Sensor: Nr:Datum:Temp:Abs-Feuchte:Windchill:Wind:
Aussen-T/F 51 27-07-2019 04:10:00 21.4 C 15.94 g/m*3 21.4 C 0 km/h
52 27-07-2019 04:15:00 21.1 C 15.66 g/m*3 21.1 C 0 km/h
53 27-07-2019 04:20:00 20.9 C 15.66 g/m*3 20.9 C 0 km/h
54 27-07-2019 04:25:00 20.8 C 15.75 g/m*3 20.8 C 0 km/h
55 27-07-2019 04:30:00 20.7 C 15.66 g/m*3 20.7 C 0 km/h
56 27-07-2019 04:35:00 20.6 C 15.57 g/m*3 20.6 C 0 km/h
57 27-07-2019 04:40:00 20.5 C 15.66 g/m*3 20.5 C 0 km/h
58 27-07-2019 04:45:00 20.4 C 15.57 g/m*3 20.4 C 0 km/h
59 27-07-2019 04:50:00 20.4 C 15.57 g/m*3 20.4 C 0 km/h
60 27-07-2019 04:55:00 20.4 C 15.74 g/m*3 20.4 C 0 km/h
61 27-07-2019 05:00:00 20.4 C 15.57 g/m*3 20.4 C 0 km/h
62 27-07-2019 05:05:00 20.4 C 15.57 g/m*3 20.4 C 0 km/h
63 27-07-2019 05:10:00 20.3 C 15.65 g/m*3 20.3 C 0 km/h
64 27-07-2019 05:15:00 20.3 C 15.65 g/m*3 20.3 C 0 km/h
65 27-07-2019 05:20:00 20.3 C 15.65 g/m*3 20.3 C 0 km/h
66 27-07-2019 05:25:00 20.3 C 15.65 g/m*3 20.3 C 0 km/h
67 27-07-2019 05:30:00 20.2 C 15.56 g/m*3 20.2 C 0 km/h
68 27-07-2019 05:35:00 20.3 C 15.65 g/m*3 20.3 C 0 km/h
69 27-07-2019 05:40:00 20.2 C 15.56 g/m*3 20.2 C 0 km/h
70 27-07-2019 05:45:00 20.2 C 15.56 g/m*3 20.2 C 0 km/h
71 27-07-2019 05:50:00 20.2 C 15.56 g/m*3 20.2 C 0 km/h
72 27-07-2019 05:55:00 20.2 C 15.39 g/m*3 20.2 C 0 km/h
73 27-07-2019 06:00:00 20.2 C 15.39 g/m*3 20.2 C 0 km/h
74 27-07-2019 06:05:00 20.3 C 15.65 g/m*3 20.3 C 0 km/h
75 27-07-2019 06:10:00 20.3 C 15.48 g/m*3 20.3 C 0 km/h
Sensor: Nr:Datum:Temp:Abs-Feuchte:Windchill:Wind:
Aussen-T/F 76 27-07-2019 06:15:00 20.3 C 15.65 g/m*3 20.3 C 0 km/h
77 27-07-2019 06:20:00 20.3 C 15.48 g/m*3 20.3 C 0 km/h
78 27-07-2019 06:25:00 20.4 C 15.74 g/m*3 20.4 C 0 km/h
79 27-07-2019 06:30:00 20.6 C 15.93 g/m*3 20.6 C 3.2 km/h
80 27-07-2019 06:35:00 20.7 C 16.02 g/m*3 20.7 C 0 km/h
81 27-07-2019 06:40:00 20.7 C 15.84 g/m*3 20.7 C 0 km/h
82 27-07-2019 06:45:00 20.8 C 15.93 g/m*3 20.8 C 0 km/h
83 27-07-2019 06:50:00 20.8 C 16.12 g/m*3 20.8 C 0 km/h
84 27-07-2019 06:55:00 20.9 C 16.21 g/m*3 20.9 C 0 km/h
85 27-07-2019 07:00:00 20.9 C 16.21 g/m*3 20.9 C 0 km/h
86 27-07-2019 07:05:00 21 C 16.3 g/m*3 21 C 0 km/h
87 27-07-2019 07:10:00 20.9 C 16.03 g/m*3 20.9 C 0 km/h
88 27-07-2019 07:15:00 21 C 16.3 g/m*3 21 C 0 km/h
89 27-07-2019 07:20:00 21.1 C 16.21 g/m*3 21.1 C 0 km/h
90 27-07-2019 07:25:00 21.2 C 16.31 g/m*3 21.2 C 0 km/h
91 27-07-2019 07:30:00 21.3 C 16.59 g/m*3 21.3 C 0 km/h
92 27-07-2019 07:35:00 21.4 C 16.69 g/m*3 21.4 C 0 km/h
93 27-07-2019 07:40:00 21.4 C 16.5 g/m*3 21.4 C 0 km/h
94 27-07-2019 07:45:00 21.5 C 16.59 g/m*3 21.5 C 0 km/h
95 27-07-2019 07:50:00 21.6 C 16.5 g/m*3 21.6 C 0 km/h
96 27-07-2019 07:55:00 21.7 C 16.41 g/m*3 21.7 C 0 km/h
97 27-07-2019 08:00:00 21.8 C 16.5 g/m*3 21.8 C 0 km/h
98 27-07-2019 08:05:00 21.9 C 16.6 g/m*3 21.9 C 0 km/h
99 27-07-2019 08:10:00 22.1 C 16.79 g/m*3 22.1 C 1.6 km/h
100 27-07-2019 08:15:00 22.1 C 16.4 g/m*3 22.1 C 0 km/h
Sensor: Nr:Datum:Temp:Abs-Feuchte:Windchill:Wind:
Aussen-T/F 101 27-07-2019 08:20:00 22.2 C 16.3 g/m*3 22.2 C 1.6 km/h
102 27-07-2019 08:25:00 22.3 C 16.19 g/m*3 22.3 C 0 km/h
103 27-07-2019 08:30:00 22.5 C 16.18 g/m*3 22.5 C 3.2 km/h
104 27-07-2019 08:35:00 22.8 C 16.26 g/m*3 22.8 C 1.6 km/h
105 27-07-2019 08:40:00 23 C 16.03 g/m*3 23 C 4.8 km/h
106 27-07-2019 08:45:00 23.2 C 16.22 g/m*3 23.2 C 1.6 km/h
107 27-07-2019 08:50:00 23.4 C 16.19 g/m*3 23.4 C 3.2 km/h
108 27-07-2019 08:55:00 23.6 C 16.16 g/m*3 23.6 C 1.6 km/h
109 27-07-2019 09:00:00 23.8 C 16.35 g/m*3 23.8 C 1.6 km/h
110 27-07-2019 09:05:00 24.1 C 16.63 g/m*3 24.1 C 4.8 km/h
111 27-07-2019 09:10:00 24.3 C 16.82 g/m*3 24.3 C 3.2 km/h
112 27-07-2019 09:15:00 24.4 C 16.47 g/m*3 24.4 C 1.6 km/h
113 27-07-2019 09:20:00 24.6 C 16.43 g/m*3 24.6 C 0 km/h
114 27-07-2019 09:25:00 24.8 C 16.62 g/m*3 24.8 C 1.6 km/h
115 27-07-2019 09:30:00 24.9 C 16.71 g/m*3 24.9 C 4.8 km/h
116 27-07-2019 09:35:00 25.1 C 16.9 g/m*3 25.1 C 3.2 km/h
117 27-07-2019 09:40:00 25.1 C 16.67 g/m*3 25.1 C 6.4 km/h
118 27-07-2019 09:45:00 25.2 C 16.76 g/m*3 25.2 C 6.4 km/h
119 27-07-2019 09:50:00 25.2 C 16.76 g/m*3 25.2 C 4.8 km/h
120 27-07-2019 09:55:00 25.2 C 16.76 g/m*3 25.2 C 4.8 km/h
121 27-07-2019 10:00:00 25.2 C 16.76 g/m*3 25.2 C 6.4 km/h
122 27-07-2019 10:05:00 25.3 C 16.62 g/m*3 25.3 C 8.1 km/h
123 27-07-2019 10:10:00 25.3 C 16.62 g/m*3 25.3 C 9.7 km/h
124 27-07-2019 10:15:00 25.3 C 18.73 g/m*3 25.3 C 6.4 km/h
125 27-07-2019 10:20:00 25 C 18.88 g/m*3 25 C 0 km/h
Sensor: Nr:Datum:Temp:Abs-Feuchte:Windchill:Wind:
Aussen-T/F 126 27-07-2019 10:25:00 24.7 C 19.01 g/m*3 24.7 C 0 km/h
127 27-07-2019 10:30:00 24.4 C 18.92 g/m*3 24.4 C 0 km/h
128 27-07-2019 10:35:00 24.2 C 18.92 g/m*3 24.2 C 0 km/h
129 27-07-2019 10:40:00 24.1 C 19.04 g/m*3 24.1 C 0 km/h
130 27-07-2019 10:45:00 24.1 C 19.25 g/m*3 24.1 C 0 km/h
131 27-07-2019 10:50:00 24.1 C 19.04 g/m*3 24.1 C 0 km/h
132 27-07-2019 10:55:00 24 C 18.93 g/m*3 24 C 0 km/h
133 27-07-2019 11:00:00 24 C 19.15 g/m*3 24 C 0 km/h
134 27-07-2019 11:05:00 24.1 C 19.25 g/m*3 24.1 C 0 km/h
135 27-07-2019 11:10:00 24.1 C 19.25 g/m*3 24.1 C 0 km/h
136 27-07-2019 11:15:00 24.1 C 19.25 g/m*3 24.1 C 0 km/h
137 27-07-2019 11:20:00 24.2 C 19.36 g/m*3 24.2 C 0 km/h
138 27-07-2019 11:25:00 24.2 C 19.36 g/m*3 24.2 C 0 km/h
139 27-07-2019 11:30:00 24.2 C 19.14 g/m*3 24.2 C 0 km/h
140 27-07-2019 11:35:00 24 C 18.49 g/m*3 24 C 0 km/h
141 27-07-2019 11:40:00 23.9 C 18.39 g/m*3 23.9 C 1.6 km/h
142 27-07-2019 11:45:00 23.7 C 18.18 g/m*3 23.7 C 0 km/h
143 27-07-2019 11:50:00 23.5 C 17.76 g/m*3 23.5 C 3.2 km/h
144 27-07-2019 11:55:00 23.3 C 17.77 g/m*3 23.3 C 1.6 km/h
145 27-07-2019 12:00:00 23.2 C 17.67 g/m*3 23.2 C 1.6 km/h
146 27-07-2019 12:05:00 23.2 C 18.09 g/m*3 23.2 C 0 km/h
147 27-07-2019 12:10:00 23.2 C 18.29 g/m*3 23.2 C 0 km/h
148 27-07-2019 12:15:00 23.2 C 18.29 g/m*3 23.2 C 0 km/h
149 27-07-2019 12:20:00 23.2 C 17.88 g/m*3 23.2 C 3.2 km/h
150 27-07-2019 12:25:00 23.3 C 17.77 g/m*3 23.3 C 3.2 km/h
Sensor: Nr:Datum:Temp:Abs-Feuchte:Windchill:Wind:
Aussen-T/F 151 27-07-2019 12:30:00 23.5 C 17.76 g/m*3 23.5 C 1.6 km/h
152 27-07-2019 12:35:00 23.8 C 17.42 g/m*3 23.8 C 1.6 km/h
153 27-07-2019 12:40:00 24.1 C 17.5 g/m*3 24.1 C 1.6 km/h
154 27-07-2019 12:45:00 24.4 C 18.25 g/m*3 24.4 C 4.8 km/h
155 27-07-2019 12:50:00 24.8 C 17.75 g/m*3 24.8 C 3.2 km/h
156 27-07-2019 12:55:00 25.1 C 18.06 g/m*3 25.1 C 3.2 km/h
157 27-07-2019 13:00:00 25.3 C 17.56 g/m*3 25.3 C 4.8 km/h
158 27-07-2019 13:05:00 25.5 C 17.99 g/m*3 25.5 C 6.4 km/h
159 27-07-2019 13:10:00 25.7 C 17.72 g/m*3 25.7 C 1.6 km/h
160 27-07-2019 13:15:00 26 C 18.26 g/m*3 26 C 4.8 km/h
161 27-07-2019 13:20:00 26.2 C 18.22 g/m*3 26.2 C 8.1 km/h
162 27-07-2019 13:25:00 26.2 C 18.22 g/m*3 26.2 C 12.9 km/h
163 27-07-2019 13:30:00 26.1 C 18.36 g/m*3 26.1 C 8.1 km/h
164 27-07-2019 13:35:00 26.2 C 18.46 g/m*3 26.2 C 4.8 km/h
165 27-07-2019 13:40:00 26.2 C 18.22 g/m*3 26.2 C 3.2 km/h
166 27-07-2019 13:45:00 26.2 C 17.73 g/m*3 26.2 C 4.8 km/h
167 27-07-2019 13:50:00 26.2 C 17.23 g/m*3 26.2 C 6.4 km/h
168 27-07-2019 13:55:00 26.2 C 17.73 g/m*3 26.2 C 4.8 km/h
169 27-07-2019 14:00:00 26.2 C 16.99 g/m*3 26.2 C 8.1 km/h
170 27-07-2019 14:05:00 26.1 C 17.14 g/m*3 26.1 C 3.2 km/h
171 27-07-2019 14:10:00 25.9 C 16.95 g/m*3 25.9 C 6.4 km/h
172 27-07-2019 14:15:00 25.9 C 16.46 g/m*3 25.9 C 4.8 km/h
173 27-07-2019 14:20:00 25.8 C 16.85 g/m*3 25.8 C 1.6 km/h
174 27-07-2019 14:25:00 25.7 C 16.52 g/m*3 25.7 C 3.2 km/h
175 27-07-2019 14:30:00 25.6 C 16.9 g/m*3 25.6 C 4.8 km/h
Sensor: Nr:Datum:Temp:Abs-Feuchte:Windchill:Wind:
Aussen-T/F 176 27-07-2019 14:35:00 25.5 C 16.81 g/m*3 25.5 C 4.8 km/h
177 27-07-2019 14:40:00 25.5 C 17.28 g/m*3 25.5 C 4.8 km/h
178 27-07-2019 14:45:00 25.5 C 17.28 g/m*3 25.5 C 3.2 km/h
179 27-07-2019 14:50:00 25.5 C 17.76 g/m*3 25.5 C 4.8 km/h
180 27-07-2019 14:55:00 25.5 C 17.52 g/m*3 25.5 C 6.4 km/h
181 27-07-2019 15:00:00 25.3 C 17.32 g/m*3 25.3 C 8.1 km/h
182 27-07-2019 15:05:00 25.1 C 17.13 g/m*3 25.1 C 11.3 km/h
183 27-07-2019 15:10:00 24.8 C 16.84 g/m*3 24.8 C 8.1 km/h
184 27-07-2019 15:15:00 24.7 C 16.98 g/m*3 24.7 C 3.2 km/h
185 27-07-2019 15:20:00 24.7 C 16.98 g/m*3 24.7 C 4.8 km/h
186 27-07-2019 15:25:00 24.8 C 17.07 g/m*3 24.8 C 3.2 km/h
187 27-07-2019 15:30:00 24.8 C 16.84 g/m*3 24.8 C 6.4 km/h
188 27-07-2019 15:35:00 25 C 17.03 g/m*3 25 C 9.7 km/h
189 27-07-2019 15:40:00 25.1 C 17.13 g/m*3 25.1 C 8.1 km/h
190 27-07-2019 15:45:00 25.2 C 16.99 g/m*3 25.2 C 8.1 km/h
191 27-07-2019 15:50:00 25.4 C 17.19 g/m*3 25.4 C 8.1 km/h
192 27-07-2019 15:55:00 25.6 C 17.62 g/m*3 25.6 C 8.1 km/h
193 27-07-2019 16:00:00 25.8 C 17.33 g/m*3 25.8 C 11.3 km/h
194 27-07-2019 16:05:00 26.1 C 17.14 g/m*3 26.1 C 12.9 km/h
195 27-07-2019 16:10:00 26.2 C 16.74 g/m*3 26.2 C 9.7 km/h
196 27-07-2019 16:15:00 26.2 C 16.49 g/m*3 26.2 C 12.9 km/h
197 27-07-2019 16:20:00 26.2 C 16.74 g/m*3 26.2 C 12.9 km/h
198 27-07-2019 16:25:00 26.3 C 16.83 g/m*3 26.3 C 9.7 km/h
199 27-07-2019 16:30:00 26.3 C 16.59 g/m*3 26.3 C 11.3 km/h
200 27-07-2019 16:35:00 26.2 C 16.49 g/m*3 26.2 C 9.7 km/h
Sensor: Nr:Datum:Temp:Abs-Feuchte:Windchill:Wind:
Aussen-T/F 201 27-07-2019 16:40:00 25.9 C 16.46 g/m*3 25.9 C 8.1 km/h
202 27-07-2019 16:45:00 25.7 C 16.04 g/m*3 25.7 C 12.9 km/h
203 27-07-2019 16:50:00 25.5 C 16.34 g/m*3 25.5 C 12.9 km/h
204 27-07-2019 16:55:00 25.2 C 16.53 g/m*3 25.2 C 14.5 km/h
205 27-07-2019 17:00:00 24.9 C 16.71 g/m*3 24.9 C 12.9 km/h
206 27-07-2019 17:05:00 24.6 C 16.66 g/m*3 24.6 C 12.9 km/h
207 27-07-2019 17:10:00 24.5 C 17.01 g/m*3 24.5 C 9.7 km/h
208 27-07-2019 17:15:00 24.5 C 17.23 g/m*3 24.5 C 6.4 km/h
209 27-07-2019 17:20:00 24.5 C 17.23 g/m*3 24.5 C 6.4 km/h
210 27-07-2019 17:25:00 24.5 C 17.23 g/m*3 24.5 C 8.1 km/h
211 27-07-2019 17:30:00 24.4 C 16.91 g/m*3 24.4 C 8.1 km/h
212 27-07-2019 17:35:00 24.4 C 16.91 g/m*3 24.4 C 8.1 km/h
213 27-07-2019 17:40:00 24.4 C 17.14 g/m*3 24.4 C 6.4 km/h
214 27-07-2019 17:45:00 24.4 C 16.91 g/m*3 24.4 C 4.8 km/h
215 27-07-2019 17:50:00 24.4 C 16.91 g/m*3 24.4 C 4.8 km/h
216 27-07-2019 17:55:00 24.4 C 16.91 g/m*3 24.4 C 6.4 km/h
217 27-07-2019 18:00:00 24.4 C 17.14 g/m*3 24.4 C 6.4 km/h
218 27-07-2019 18:05:00 24.4 C 17.14 g/m*3 24.4 C 6.4 km/h
219 27-07-2019 18:10:00 24.4 C 16.91 g/m*3 24.4 C 4.8 km/h
220 27-07-2019 18:15:00 24.6 C 17.33 g/m*3 24.6 C 4.8 km/h
221 27-07-2019 18:20:00 24.8 C 17.3 g/m*3 24.8 C 8.1 km/h
222 27-07-2019 18:25:00 25.1 C 17.36 g/m*3 25.1 C 4.8 km/h
223 27-07-2019 18:30:00 25.4 C 17.66 g/m*3 25.4 C 6.4 km/h
224 27-07-2019 18:35:00 25.3 C 17.56 g/m*3 25.3 C 6.4 km/h
225 27-07-2019 18:40:00 25.3 C 17.56 g/m*3 25.3 C 6.4 km/h
Sensor: Nr:Datum:Temp:Abs-Feuchte:Windchill:Wind:
Aussen-T/F 226 27-07-2019 18:45:00 25.2 C 17.46 g/m*3 25.2 C 6.4 km/h
227 27-07-2019 18:50:00 25.1 C 17.36 g/m*3 25.1 C 6.4 km/h
228 27-07-2019 18:55:00 24.9 C 17.4 g/m*3 24.9 C 8.1 km/h
229 27-07-2019 19:00:00 24.7 C 17.43 g/m*3 24.7 C 9.7 km/h
230 27-07-2019 19:05:00 24.5 C 17.23 g/m*3 24.5 C 8.1 km/h
231 27-07-2019 19:10:00 24.3 C 16.82 g/m*3 24.3 C 8.1 km/h
232 27-07-2019 19:15:00 24.1 C 16.85 g/m*3 24.1 C 9.7 km/h
233 27-07-2019 19:20:00 23.9 C 17.09 g/m*3 23.9 C 6.4 km/h
234 27-07-2019 19:25:00 23.8 C 17.42 g/m*3 23.8 C 9.7 km/h
235 27-07-2019 19:30:00 23.7 C 17.54 g/m*3 23.7 C 4.8 km/h
236 27-07-2019 19:35:00 23.6 C 17.65 g/m*3 23.6 C 4.8 km/h
237 27-07-2019 19:40:00 23.4 C 17.66 g/m*3 23.4 C 4.8 km/h
238 27-07-2019 19:45:00 23.4 C 17.66 g/m*3 23.4 C 4.8 km/h
239 27-07-2019 19:50:00 23.4 C 17.87 g/m*3 23.4 C 4.8 km/h
240 27-07-2019 19:55:00 23.3 C 17.56 g/m*3 23.3 C 8.1 km/h
241 27-07-2019 20:00:00 23.2 C 17.46 g/m*3 23.2 C 6.4 km/h
242 27-07-2019 20:05:00 23.1 C 17.57 g/m*3 23.1 C 6.4 km/h
243 27-07-2019 20:10:00 23.1 C 17.57 g/m*3 23.1 C 4.8 km/h
244 27-07-2019 20:15:00 23 C 17.47 g/m*3 23 C 3.2 km/h
245 27-07-2019 20:20:00 23 C 17.47 g/m*3 23 C 6.4 km/h
246 27-07-2019 20:25:00 22.9 C 17.37 g/m*3 22.9 C 6.4 km/h
247 27-07-2019 20:30:00 22.8 C 17.27 g/m*3 22.8 C 4.8 km/h
248 27-07-2019 20:35:00 22.8 C 17.27 g/m*3 22.8 C 4.8 km/h
249 27-07-2019 20:40:00 22.8 C 17.27 g/m*3 22.8 C 6.4 km/h
250 27-07-2019 20:45:00 22.7 C 17.17 g/m*3 22.7 C 6.4 km/h
Sensor: Nr:Datum:Temp:Abs-Feuchte:Windchill:Wind:
Aussen-T/F 251 27-07-2019 20:50:00 22.6 C 17.08 g/m*3 22.6 C 4.8 km/h
252 27-07-2019 20:55:00 22.6 C 17.08 g/m*3 22.6 C 8.1 km/h
253 27-07-2019 21:00:00 22.4 C 16.88 g/m*3 22.4 C 6.4 km/h
254 27-07-2019 21:05:00 22.4 C 16.88 g/m*3 22.4 C 6.4 km/h
255 27-07-2019 21:10:00 22.3 C 16.78 g/m*3 22.3 C 4.8 km/h
256 27-07-2019 21:15:00 22.3 C 16.78 g/m*3 22.3 C 4.8 km/h
257 27-07-2019 21:20:00 22.2 C 16.88 g/m*3 22.2 C 4.8 km/h
258 27-07-2019 21:25:00 22.1 C 16.79 g/m*3 22.1 C 8.1 km/h
259 27-07-2019 21:30:00 22.1 C 16.79 g/m*3 22.1 C 9.7 km/h
260 27-07-2019 21:35:00 21.9 C 16.6 g/m*3 21.9 C 6.4 km/h
261 27-07-2019 21:40:00 21.9 C 16.6 g/m*3 21.9 C 8.1 km/h
262 27-07-2019 21:45:00 21.8 C 16.5 g/m*3 21.8 C 3.2 km/h
263 27-07-2019 21:50:00 21.8 C 16.5 g/m*3 21.8 C 9.7 km/h
264 27-07-2019 21:55:00 21.7 C 16.41 g/m*3 21.7 C 11.3 km/h
265 27-07-2019 22:00:00 21.7 C 16.41 g/m*3 21.7 C 8.1 km/h
266 27-07-2019 22:05:00 21.6 C 16.5 g/m*3 21.6 C 9.7 km/h
267 27-07-2019 22:10:00 21.6 C 16.5 g/m*3 21.6 C 8.1 km/h
268 27-07-2019 22:15:00 21.6 C 16.5 g/m*3 21.6 C 8.1 km/h
269 27-07-2019 22:20:00 21.5 C 16.41 g/m*3 21.5 C 12.9 km/h
270 27-07-2019 22:25:00 21.4 C 16.31 g/m*3 21.4 C 6.4 km/h
271 27-07-2019 22:30:00 21.4 C 16.31 g/m*3 21.4 C 4.8 km/h
272 27-07-2019 22:35:00 21.4 C 16.31 g/m*3 21.4 C 9.7 km/h
273 27-07-2019 22:40:00 21.3 C 16.22 g/m*3 21.3 C 8.1 km/h
274 27-07-2019 22:45:00 21.3 C 16.4 g/m*3 21.3 C 8.1 km/h
275 27-07-2019 22:50:00 21.3 C 16.4 g/m*3 21.3 C 6.4 km/h
Sensor: Nr:Datum:Temp:Abs-Feuchte:Windchill:Wind:
Aussen-T/F 276 27-07-2019 22:55:00 21.3 C 16.4 g/m*3 21.3 C 4.8 km/h
277 27-07-2019 23:00:00 21.3 C 16.4 g/m*3 21.3 C 8.1 km/h
278 27-07-2019 23:05:00 21.2 C 16.31 g/m*3 21.2 C 6.4 km/h
279 27-07-2019 23:10:00 21.2 C 16.31 g/m*3 21.2 C 8.1 km/h
280 27-07-2019 23:15:00 21.2 C 16.49 g/m*3 21.2 C 4.8 km/h
281 27-07-2019 23:20:00 21.2 C 16.49 g/m*3 21.2 C 1.6 km/h
282 27-07-2019 23:25:00 21.2 C 16.49 g/m*3 21.2 C 3.2 km/h
283 27-07-2019 23:30:00 21.1 C 16.4 g/m*3 21.1 C 0 km/h
284 27-07-2019 23:35:00 21.1 C 16.4 g/m*3 21.1 C 0 km/h
285 27-07-2019 23:40:00 21.1 C 16.4 g/m*3 21.1 C 1.6 km/h
286 27-07-2019 23:45:00 21.1 C 16.4 g/m*3 21.1 C 0 km/h
287 27-07-2019 23:50:00 21 C 16.3 g/m*3 21 C 0 km/h
288 27-07-2019 23:55:00 21 C 16.3 g/m*3 21 C 4.8 km/h
289 28-07-2019 00:00:00 20.9 C 16.21 g/m*3 20.9 C 3.2 km/h
290 28-07-2019 00:05:00 20.9 C 16.39 g/m*3 20.9 C 3.2 km/h
291 28-07-2019 00:10:00 20.9 C 16.39 g/m*3 20.9 C 1.6 km/h
292 28-07-2019 00:15:00 20.9 C 16.39 g/m*3 20.9 C 4.8 km/h
293 28-07-2019 00:20:00 20.8 C 16.3 g/m*3 20.8 C 1.6 km/h
294 28-07-2019 00:25:00 20.8 C 16.3 g/m*3 20.8 C 1.6 km/h
295 28-07-2019 00:30:00 20.8 C 16.3 g/m*3 20.8 C 3.2 km/h
296 28-07-2019 00:35:00 20.8 C 16.3 g/m*3 20.8 C 4.8 km/h
297 28-07-2019 00:40:00 20.8 C 16.3 g/m*3 20.8 C 0 km/h
298 28-07-2019 00:45:00 20.8 C 16.3 g/m*3 20.8 C 3.2 km/h
299 28-07-2019 00:50:00 20.8 C 16.3 g/m*3 20.8 C 4.8 km/h
300 28-07-2019 00:55:00 20.8 C 16.3 g/m*3 20.8 C 1.6 km/h
Sensor: Nr:Datum:Temp:Abs-Feuchte:Windchill:Wind:
Aussen-T/F 301 28-07-2019 01:00:00 20.8 C 16.3 g/m*3 20.8 C 6.4 km/h
302 28-07-2019 01:05:00 20.7 C 16.2 g/m*3 20.7 C 3.2 km/h
303 28-07-2019 01:10:00 20.7 C 16.2 g/m*3 20.7 C 3.2 km/h
304 28-07-2019 01:15:00 20.7 C 16.2 g/m*3 20.7 C 4.8 km/h
305 28-07-2019 01:20:00 20.7 C 16.2 g/m*3 20.7 C 3.2 km/h
306 28-07-2019 01:25:00 20.7 C 16.2 g/m*3 20.7 C 4.8 km/h
307 28-07-2019 01:30:00 20.7 C 16.2 g/m*3 20.7 C 3.2 km/h
308 28-07-2019 01:35:00 20.7 C 16.2 g/m*3 20.7 C 0 km/h
309 28-07-2019 01:40:00 20.7 C 16.2 g/m*3 20.7 C 0 km/h
310 28-07-2019 01:45:00 20.7 C 16.2 g/m*3 20.7 C 0 km/h
311 28-07-2019 01:50:00 20.7 C 16.2 g/m*3 20.7 C 0 km/h
312 28-07-2019 01:55:00 20.7 C 16.2 g/m*3 20.7 C 4.8 km/h
313 28-07-2019 02:00:00 20.7 C 16.2 g/m*3 20.7 C 4.8 km/h
314 28-07-2019 02:05:00 20.7 C 16.2 g/m*3 20.7 C 3.2 km/h
315 28-07-2019 02:10:00 20.7 C 16.2 g/m*3 20.7 C 1.6 km/h
316 28-07-2019 02:15:00 20.7 C 16.2 g/m*3 20.7 C 0 km/h
317 28-07-2019 02:20:00 20.7 C 16.2 g/m*3 20.7 C 3.2 km/h
318 28-07-2019 02:25:00 20.7 C 16.2 g/m*3 20.7 C 3.2 km/h
319 28-07-2019 02:30:00 20.7 C 16.2 g/m*3 20.7 C 0 km/h
320 28-07-2019 02:35:00 20.7 C 16.2 g/m*3 20.7 C 3.2 km/h
321 28-07-2019 02:40:00 20.7 C 16.2 g/m*3 20.7 C 1.6 km/h
322 28-07-2019 02:45:00 20.7 C 16.2 g/m*3 20.7 C 0 km/h
323 28-07-2019 02:50:00 20.7 C 16.2 g/m*3 20.7 C 0 km/h
324 28-07-2019 02:55:00 20.7 C 16.2 g/m*3 20.7 C 0 km/h
325 28-07-2019 03:00:00 20.7 C 16.2 g/m*3 20.7 C 0 km/h
Sensor: Nr:Datum:Temp:Abs-Feuchte:Windchill:Wind:
Aussen-T/F 326 28-07-2019 03:05:00 20.7 C 16.2 g/m*3 20.7 C 0 km/h
327 28-07-2019 03:10:00 20.7 C 16.2 g/m*3 20.7 C 1.6 km/h
328 28-07-2019 03:15:00 20.7 C 16.2 g/m*3 20.7 C 0 km/h
329 28-07-2019 03:20:00 20.7 C 16.2 g/m*3 20.7 C 1.6 km/h
330 28-07-2019 03:25:00 20.7 C 16.2 g/m*3 20.7 C 0 km/h
331 28-07-2019 03:30:00 20.7 C 16.2 g/m*3 20.7 C 0 km/h
332 28-07-2019 03:35:00 20.7 C 16.2 g/m*3 20.7 C 0 km/h
333 28-07-2019 03:40:00 20.7 C 16.2 g/m*3 20.7 C 0 km/h
334 28-07-2019 03:45:00 20.7 C 16.2 g/m*3 20.7 C 0 km/h
335 28-07-2019 03:50:00 20.6 C 16.11 g/m*3 20.6 C 1.6 km/h
336 28-07-2019 03:55:00 20.6 C 16.11 g/m*3 20.6 C 0 km/h
337 28-07-2019 04:00:00 20.7 C 16.2 g/m*3 20.7 C 0 km/h
338 28-07-2019 04:05:00 20.6 C 16.11 g/m*3 20.6 C 0 km/h
339 28-07-2019 04:10:00 20.6 C 16.29 g/m*3 20.6 C 6.4 km/h
340 28-07-2019 04:15:00 20.6 C 16.29 g/m*3 20.6 C 1.6 km/h
341 28-07-2019 04:20:00 20.6 C 16.29 g/m*3 20.6 C 3.2 km/h
342 28-07-2019 04:25:00 20.6 C 16.29 g/m*3 20.6 C 0 km/h
343 28-07-2019 04:30:00 20.6 C 16.29 g/m*3 20.6 C 0 km/h
344 28-07-2019 04:35:00 20.6 C 16.29 g/m*3 20.6 C 0 km/h
345 28-07-2019 04:40:00 20.6 C 16.29 g/m*3 20.6 C 0 km/h
346 28-07-2019 04:45:00 20.6 C 16.29 g/m*3 20.6 C 0 km/h
347 28-07-2019 04:50:00 20.6 C 16.29 g/m*3 20.6 C 0 km/h
348 28-07-2019 04:55:00 20.6 C 16.29 g/m*3 20.6 C 0 km/h
349 28-07-2019 05:00:00 20.6 C 16.29 g/m*3 20.6 C 0 km/h
350 28-07-2019 05:05:00 20.6 C 16.29 g/m*3 20.6 C 4.8 km/h
Sensor: Nr:Datum:Temp:Abs-Feuchte:Windchill:Wind:
Aussen-T/F 351 28-07-2019 05:10:00 20.6 C 16.29 g/m*3 20.6 C 3.2 km/h
352 28-07-2019 05:15:00 20.6 C 16.29 g/m*3 20.6 C 4.8 km/h
353 28-07-2019 05:20:00 20.6 C 16.29 g/m*3 20.6 C 6.4 km/h
354 28-07-2019 05:25:00 20.6 C 16.29 g/m*3 20.6 C 1.6 km/h
355 28-07-2019 05:30:00 20.5 C 16.19 g/m*3 20.5 C 1.6 km/h
356 28-07-2019 05:35:00 20.5 C 16.19 g/m*3 20.5 C 1.6 km/h
357 28-07-2019 05:40:00 20.5 C 16.19 g/m*3 20.5 C 3.2 km/h
358 28-07-2019 05:45:00 20.5 C 16.19 g/m*3 20.5 C 0 km/h
359 28-07-2019 05:50:00 20.5 C 16.19 g/m*3 20.5 C 0 km/h
360 28-07-2019 05:55:00 20.5 C 16.19 g/m*3 20.5 C 0 km/h
361 28-07-2019 06:00:00 20.5 C 16.19 g/m*3 20.5 C 3.2 km/h
362 28-07-2019 06:05:00 20.5 C 16.19 g/m*3 20.5 C 0 km/h
363 28-07-2019 06:10:00 20.5 C 16.19 g/m*3 20.5 C 0 km/h
364 28-07-2019 06:15:00 20.5 C 16.19 g/m*3 20.5 C 0 km/h
365 28-07-2019 06:20:00 20.5 C 16.19 g/m*3 20.5 C 0 km/h
366 28-07-2019 06:25:00 20.5 C 16.19 g/m*3 20.5 C 1.6 km/h
367 28-07-2019 06:30:00 20.5 C 16.19 g/m*3 20.5 C 4.8 km/h
368 28-07-2019 06:35:00 20.6 C 16.29 g/m*3 20.6 C 3.2 km/h
369 28-07-2019 06:40:00 20.6 C 16.29 g/m*3 20.6 C 4.8 km/h
370 28-07-2019 06:45:00 20.6 C 16.29 g/m*3 20.6 C 3.2 km/h
371 28-07-2019 06:50:00 20.6 C 16.29 g/m*3 20.6 C 1.6 km/h
372 28-07-2019 06:55:00 20.6 C 16.29 g/m*3 20.6 C 3.2 km/h
373 28-07-2019 07:00:00 20.6 C 16.29 g/m*3 20.6 C 4.8 km/h
374 28-07-2019 07:05:00 20.7 C 16.38 g/m*3 20.7 C 3.2 km/h
375 28-07-2019 07:10:00 20.7 C 16.38 g/m*3 20.7 C 6.4 km/h
Sensor: Nr:Datum:Temp:Abs-Feuchte:Windchill:Wind:
Aussen-T/F 376 28-07-2019 07:15:00 20.7 C 16.2 g/m*3 20.7 C 9.7 km/h
377 28-07-2019 07:20:00 20.7 C 16.2 g/m*3 20.7 C 8.1 km/h
378 28-07-2019 07:25:00 20.7 C 16.2 g/m*3 20.7 C 6.4 km/h
379 28-07-2019 07:30:00 20.7 C 16.2 g/m*3 20.7 C 12.9 km/h
380 28-07-2019 07:35:00 20.7 C 16.2 g/m*3 20.7 C 12.9 km/h
381 28-07-2019 07:40:00 20.7 C 16.2 g/m*3 20.7 C 8.1 km/h
382 28-07-2019 07:45:00 20.7 C 16.02 g/m*3 20.7 C 4.8 km/h
383 28-07-2019 07:50:00 20.7 C 16.02 g/m*3 20.7 C 4.8 km/h
384 28-07-2019 07:55:00 20.7 C 16.02 g/m*3 20.7 C 9.7 km/h
385 28-07-2019 08:00:00 20.7 C 16.02 g/m*3 20.7 C 11.3 km/h
386 28-07-2019 08:05:00 20.7 C 16.02 g/m*3 20.7 C 4.8 km/h
387 28-07-2019 08:10:00 20.8 C 16.12 g/m*3 20.8 C 6.4 km/h
388 28-07-2019 08:15:00 20.8 C 16.12 g/m*3 20.8 C 8.1 km/h
389 28-07-2019 08:20:00 20.7 C 16.02 g/m*3 20.7 C 11.3 km/h
390 28-07-2019 08:25:00 20.7 C 16.02 g/m*3 20.7 C 8.1 km/h
391 28-07-2019 08:30:00 20.7 C 16.02 g/m*3 20.7 C 6.4 km/h
392 28-07-2019 08:35:00 20.7 C 16.02 g/m*3 20.7 C 8.1 km/h
393 28-07-2019 08:40:00 20.7 C 16.02 g/m*3 20.7 C 9.7 km/h
394 28-07-2019 08:45:00 20.7 C 16.02 g/m*3 20.7 C 9.7 km/h
395 28-07-2019 08:50:00 20.7 C 16.02 g/m*3 20.7 C 8.1 km/h
396 28-07-2019 08:55:00 20.7 C 16.2 g/m*3 20.7 C 8.1 km/h
397 28-07-2019 09:00:00 20.6 C 16.11 g/m*3 20.6 C 4.8 km/h
398 28-07-2019 09:05:00 20.6 C 16.11 g/m*3 20.6 C 8.1 km/h
399 28-07-2019 09:10:00 20.6 C 16.11 g/m*3 20.6 C 6.4 km/h
400 28-07-2019 09:15:00 20.6 C 16.11 g/m*3 20.6 C 8.1 km/h
Sensor: Nr:Datum:Temp:Abs-Feuchte:Windchill:Wind:
Aussen-T/F 401 28-07-2019 09:20:00 20.5 C 16.01 g/m*3 20.5 C 8.1 km/h
402 28-07-2019 09:25:00 20.4 C 15.92 g/m*3 20.4 C 8.1 km/h
403 28-07-2019 09:30:00 20.4 C 15.92 g/m*3 20.4 C 6.4 km/h
404 28-07-2019 09:35:00 20.3 C 15.83 g/m*3 20.3 C 11.3 km/h
405 28-07-2019 09:40:00 20.3 C 16 g/m*3 20.3 C 9.7 km/h
406 28-07-2019 09:45:00 20.3 C 16 g/m*3 20.3 C 9.7 km/h
407 28-07-2019 09:50:00 20.3 C 16 g/m*3 20.3 C 9.7 km/h
408 28-07-2019 09:55:00 20.2 C 15.91 g/m*3 20.2 C 9.7 km/h
409 28-07-2019 10:00:00 20.2 C 15.91 g/m*3 20.2 C 8.1 km/h
410 28-07-2019 10:05:00 20.2 C 15.91 g/m*3 20.2 C 6.4 km/h
411 28-07-2019 10:10:00 20.2 C 15.91 g/m*3 20.2 C 4.8 km/h
412 28-07-2019 10:15:00 20.2 C 15.91 g/m*3 20.2 C 11.3 km/h
413 28-07-2019 10:20:00 20.1 C 15.82 g/m*3 20.1 C 6.4 km/h
414 28-07-2019 10:25:00 20.1 C 15.99 g/m*3 20.1 C 11.3 km/h
415 28-07-2019 10:30:00 19.9 C 15.81 g/m*3 19.9 C 9.7 km/h
416 28-07-2019 10:35:00 19.9 C 15.81 g/m*3 19.9 C 11.3 km/h
417 28-07-2019 10:40:00 19.9 C 15.81 g/m*3 19.9 C 9.7 km/h
418 28-07-2019 10:45:00 19.9 C 15.98 g/m*3 19.9 C 8.1 km/h
419 28-07-2019 10:50:00 19.8 C 15.89 g/m*3 19.8 C 6.4 km/h
420 28-07-2019 10:55:00 19.9 C 15.98 g/m*3 19.9 C 3.2 km/h
421 28-07-2019 11:00:00 19.8 C 15.89 g/m*3 19.8 C 4.8 km/h
422 28-07-2019 11:05:00 19.8 C 15.89 g/m*3 19.8 C 6.4 km/h
423 28-07-2019 11:10:00 19.8 C 15.89 g/m*3 19.8 C 3.2 km/h
424 28-07-2019 11:15:00 19.8 C 15.89 g/m*3 19.8 C 4.8 km/h
425 28-07-2019 11:20:00 19.9 C 15.98 g/m*3 19.9 C 1.6 km/h
Sensor: Nr:Datum:Temp:Abs-Feuchte:Windchill:Wind:
Aussen-T/F 426 28-07-2019 11:25:00 19.9 C 15.98 g/m*3 19.9 C 4.8 km/h
427 28-07-2019 11:30:00 20.1 C 15.99 g/m*3 20.1 C 6.4 km/h
428 28-07-2019 11:35:00 20.2 C 16.09 g/m*3 20.2 C 8.1 km/h
429 28-07-2019 11:40:00 20.3 C 16 g/m*3 20.3 C 8.1 km/h
430 28-07-2019 11:45:00 20.4 C 15.92 g/m*3 20.4 C 12.9 km/h
431 28-07-2019 11:50:00 20.4 C 15.92 g/m*3 20.4 C 4.8 km/h
432 28-07-2019 11:55:00 20.6 C 15.93 g/m*3 20.6 C 4.8 km/h
433 28-07-2019 12:00:00 20.6 C 15.93 g/m*3 20.6 C 8.1 km/h
434 28-07-2019 12:05:00 20.5 C 15.84 g/m*3 20.5 C 9.7 km/h
435 28-07-2019 12:10:00 20.5 C 15.84 g/m*3 20.5 C 6.4 km/h
436 28-07-2019 12:15:00 20.5 C 15.66 g/m*3 20.5 C 9.7 km/h
437 28-07-2019 12:20:00 20.5 C 15.66 g/m*3 20.5 C 8.1 km/h
438 28-07-2019 12:25:00 20.5 C 15.66 g/m*3 20.5 C 1.6 km/h
439 28-07-2019 12:30:00 20.4 C 15.39 g/m*3 20.4 C 8.1 km/h
440 28-07-2019 12:35:00 20.5 C 15.48 g/m*3 20.5 C 6.4 km/h
441 28-07-2019 12:40:00 20.6 C 15.75 g/m*3 20.6 C 6.4 km/h
442 28-07-2019 12:45:00 20.5 C 15.48 g/m*3 20.5 C 8.1 km/h
443 28-07-2019 12:50:00 20.5 C 15.48 g/m*3 20.5 C 9.7 km/h
444 28-07-2019 12:55:00 20.5 C 15.48 g/m*3 20.5 C 11.3 km/h
445 28-07-2019 13:00:00 20.5 C 15.48 g/m*3 20.5 C 4.8 km/h
446 28-07-2019 13:05:00 20.6 C 15.57 g/m*3 20.6 C 4.8 km/h
447 28-07-2019 13:10:00 20.5 C 15.3 g/m*3 20.5 C 9.7 km/h
448 28-07-2019 13:15:00 20.5 C 15.3 g/m*3 20.5 C 3.2 km/h
449 28-07-2019 13:20:00 20.4 C 15.21 g/m*3 20.4 C 8.1 km/h
450 28-07-2019 13:25:00 20.4 C 15.39 g/m*3 20.4 C 8.1 km/h
Sensor: Nr:Datum:Temp:Abs-Feuchte:Windchill:Wind:
Aussen-T/F 451 28-07-2019 13:30:00 20.4 C 15.39 g/m*3 20.4 C 4.8 km/h
452 28-07-2019 13:35:00 20.3 C 15.3 g/m*3 20.3 C 8.1 km/h
453 28-07-2019 13:40:00 20.2 C 15.39 g/m*3 20.2 C 6.4 km/h
454 28-07-2019 13:45:00 20.1 C 15.47 g/m*3 20.1 C 8.1 km/h
455 28-07-2019 13:50:00 19.9 C 15.29 g/m*3 19.9 C 8.1 km/h
456 28-07-2019 13:55:00 19.9 C 15.29 g/m*3 19.9 C 3.2 km/h
457 28-07-2019 14:00:00 19.9 C 15.29 g/m*3 19.9 C 4.8 km/h
458 28-07-2019 14:05:00 19.9 C 15.29 g/m*3 19.9 C 4.8 km/h
459 28-07-2019 14:10:00 19.9 C 15.46 g/m*3 19.9 C 4.8 km/h
460 28-07-2019 14:15:00 19.9 C 15.46 g/m*3 19.9 C 8.1 km/h
461 28-07-2019 14:20:00 19.9 C 15.46 g/m*3 19.9 C 9.7 km/h
462 28-07-2019 14:25:00 20 C 15.38 g/m*3 20 C 4.8 km/h
463 28-07-2019 14:30:00 20.1 C 15.47 g/m*3 20.1 C 4.8 km/h
464 28-07-2019 14:35:00 20.1 C 15.47 g/m*3 20.1 C 6.4 km/h
465 28-07-2019 14:40:00 20.1 C 15.47 g/m*3 20.1 C 6.4 km/h
466 28-07-2019 14:45:00 20.1 C 15.47 g/m*3 20.1 C 9.7 km/h
467 28-07-2019 14:50:00 20 C 15.38 g/m*3 20 C 9.7 km/h
468 28-07-2019 14:55:00 19.9 C 15.29 g/m*3 19.9 C 4.8 km/h
469 28-07-2019 15:00:00 20 C 15.38 g/m*3 20 C 3.2 km/h
470 28-07-2019 15:05:00 19.9 C 15.29 g/m*3 19.9 C 9.7 km/h
471 28-07-2019 15:10:00 19.9 C 15.12 g/m*3 19.9 C 8.1 km/h
472 28-07-2019 15:15:00 19.9 C 15.12 g/m*3 19.9 C 12.9 km/h
473 28-07-2019 15:20:00 19.9 C 15.29 g/m*3 19.9 C 3.2 km/h
474 28-07-2019 15:25:00 19.9 C 15.12 g/m*3 19.9 C 6.4 km/h
475 28-07-2019 15:30:00 19.9 C 15.12 g/m*3 19.9 C 11.3 km/h
Sensor: Nr:Datum:Temp:Abs-Feuchte:Windchill:Wind:
Aussen-T/F 476 28-07-2019 15:35:00 19.9 C 15.12 g/m*3 19.9 C 8.1 km/h
477 28-07-2019 15:40:00 19.9 C 15.12 g/m*3 19.9 C 8.1 km/h
478 28-07-2019 15:45:00 19.9 C 15.12 g/m*3 19.9 C 6.4 km/h
479 28-07-2019 15:50:00 19.9 C 15.12 g/m*3 19.9 C 9.7 km/h
480 28-07-2019 15:55:00 19.9 C 14.95 g/m*3 19.9 C 6.4 km/h
481 28-07-2019 16:00:00 19.9 C 15.12 g/m*3 19.9 C 1.6 km/h
482 28-07-2019 16:05:00 19.9 C 14.95 g/m*3 19.9 C 6.4 km/h
483 28-07-2019 16:10:00 19.9 C 14.95 g/m*3 19.9 C 8.1 km/h
484 28-07-2019 16:15:00 19.9 C 14.95 g/m*3 19.9 C 6.4 km/h
485 28-07-2019 16:20:00 19.8 C 14.86 g/m*3 19.8 C 12.9 km/h
486 28-07-2019 16:25:00 19.8 C 15.03 g/m*3 19.8 C 3.2 km/h
487 28-07-2019 16:30:00 19.8 C 15.03 g/m*3 19.8 C 8.1 km/h
488 28-07-2019 16:35:00 19.8 C 15.03 g/m*3 19.8 C 6.4 km/h
489 28-07-2019 16:40:00 19.8 C 15.03 g/m*3 19.8 C 4.8 km/h
490 28-07-2019 16:45:00 19.7 C 14.94 g/m*3 19.7 C 8.1 km/h
491 28-07-2019 16:50:00 19.7 C 14.94 g/m*3 19.7 C 0 km/h
492 28-07-2019 16:55:00 19.8 C 15.03 g/m*3 19.8 C 4.8 km/h
493 28-07-2019 17:00:00 19.7 C 14.94 g/m*3 19.7 C 9.7 km/h
494 28-07-2019 17:05:00 19.8 C 15.2 g/m*3 19.8 C 0 km/h
495 28-07-2019 17:10:00 19.7 C 15.11 g/m*3 19.7 C 4.8 km/h
496 28-07-2019 17:15:00 19.6 C 15.02 g/m*3 19.6 C 8.1 km/h
497 28-07-2019 17:20:00 19.4 C 14.85 g/m*3 19.4 C 8.1 km/h
498 28-07-2019 17:25:00 19.4 C 15.02 g/m*3 19.4 C 0 km/h
499 28-07-2019 17:30:00 19.4 C 15.02 g/m*3 19.4 C 3.2 km/h
500 28-07-2019 17:35:00 19.3 C 14.93 g/m*3 19.3 C 4.8 km/h
Sensor: Nr:Datum:Temp:Abs-Feuchte:Windchill:Wind:
Aussen-T/F 501 28-07-2019 17:40:00 19.3 C 14.93 g/m*3 19.3 C 3.2 km/h
502 28-07-2019 17:45:00 19.3 C 15.09 g/m*3 19.3 C 0 km/h
503 28-07-2019 17:50:00 19.3 C 15.09 g/m*3 19.3 C 0 km/h
504 28-07-2019 17:55:00 19.3 C 15.26 g/m*3 19.3 C 1.6 km/h
505 28-07-2019 18:00:00 19.2 C 15.01 g/m*3 19.2 C 4.8 km/h
506 28-07-2019 18:05:00 19.2 C 15.01 g/m*3 19.2 C 3.2 km/h
507 28-07-2019 18:10:00 19.2 C 15.01 g/m*3 19.2 C 1.6 km/h
508 28-07-2019 18:15:00 19.3 C 15.09 g/m*3 19.3 C 4.8 km/h
509 28-07-2019 18:20:00 19.2 C 14.84 g/m*3 19.2 C 6.4 km/h
510 28-07-2019 18:25:00 19.2 C 14.84 g/m*3 19.2 C 4.8 km/h
511 28-07-2019 18:30:00 19.2 C 14.84 g/m*3 19.2 C 9.7 km/h
512 28-07-2019 18:35:00 19.2 C 14.84 g/m*3 19.2 C 1.6 km/h
513 28-07-2019 18:40:00 19.1 C 14.75 g/m*3 19.1 C 3.2 km/h
514 28-07-2019 18:45:00 19.1 C 14.75 g/m*3 19.1 C 1.6 km/h
515 28-07-2019 18:50:00 19.1 C 14.75 g/m*3 19.1 C 0 km/h
516 28-07-2019 18:55:00 19.1 C 14.92 g/m*3 19.1 C 0 km/h
517 28-07-2019 19:00:00 19.1 C 14.92 g/m*3 19.1 C 0 km/h
518 28-07-2019 19:05:00 19.1 C 14.92 g/m*3 19.1 C 0 km/h
519 28-07-2019 19:10:00 19 C 14.83 g/m*3 19 C 1.6 km/h
520 28-07-2019 19:15:00 18.9 C 14.74 g/m*3 18.9 C 1.6 km/h
521 28-07-2019 19:20:00 18.9 C 14.74 g/m*3 18.9 C 0 km/h
522 28-07-2019 19:25:00 18.9 C 14.9 g/m*3 18.9 C 0 km/h
523 28-07-2019 19:30:00 18.9 C 14.9 g/m*3 18.9 C 0 km/h
524 28-07-2019 19:35:00 18.8 C 14.82 g/m*3 18.8 C 0 km/h
525 28-07-2019 19:40:00 18.8 C 14.82 g/m*3 18.8 C 0 km/h
Sensor: Nr:Datum:Temp:Abs-Feuchte:Windchill:Wind:
Aussen-T/F 526 28-07-2019 19:45:00 18.7 C 14.73 g/m*3 18.7 C 0 km/h
527 28-07-2019 19:50:00 18.7 C 14.73 g/m*3 18.7 C 0 km/h
528 28-07-2019 19:55:00 18.7 C 14.73 g/m*3 18.7 C 0 km/h
529 28-07-2019 20:00:00 18.7 C 14.73 g/m*3 18.7 C 0 km/h
530 28-07-2019 20:05:00 18.7 C 14.73 g/m*3 18.7 C 0 km/h
531 28-07-2019 20:10:00 18.6 C 14.64 g/m*3 18.6 C 0 km/h
532 28-07-2019 20:15:00 18.6 C 14.8 g/m*3 18.6 C 0 km/h
533 28-07-2019 20:20:00 18.6 C 14.8 g/m*3 18.6 C 0 km/h
534 28-07-2019 20:25:00 18.6 C 14.8 g/m*3 18.6 C 0 km/h
535 28-07-2019 20:30:00 18.5 C 14.71 g/m*3 18.5 C 0 km/h
536 28-07-2019 20:35:00 18.4 C 14.63 g/m*3 18.4 C 0 km/h
537 28-07-2019 20:40:00 18.4 C 14.63 g/m*3 18.4 C 0 km/h
538 28-07-2019 20:45:00 18.3 C 14.54 g/m*3 18.3 C 0 km/h
539 28-07-2019 20:50:00 18.3 C 14.54 g/m*3 18.3 C 0 km/h
540 28-07-2019 20:55:00 18.3 C 14.54 g/m*3 18.3 C 0 km/h
541 28-07-2019 21:00:00 18.2 C 14.46 g/m*3 18.2 C 0 km/h
542 28-07-2019 21:05:00 18.2 C 14.46 g/m*3 18.2 C 0 km/h
543 28-07-2019 21:10:00 18.2 C 14.61 g/m*3 18.2 C 0 km/h
544 28-07-2019 21:15:00 18.2 C 14.61 g/m*3 18.2 C 0 km/h
545 28-07-2019 21:20:00 18.2 C 14.61 g/m*3 18.2 C 0 km/h
546 28-07-2019 21:25:00 18.2 C 14.61 g/m*3 18.2 C 0 km/h
547 28-07-2019 21:30:00 18.2 C 14.61 g/m*3 18.2 C 0 km/h
548 28-07-2019 21:35:00 18.2 C 14.61 g/m*3 18.2 C 0 km/h
549 28-07-2019 21:40:00 18.2 C 14.61 g/m*3 18.2 C 0 km/h
550 28-07-2019 21:45:00 18.1 C 14.52 g/m*3 18.1 C 0 km/h
Sensor: Nr:Datum:Temp:Abs-Feuchte:Windchill:Wind:
Aussen-T/F 551 28-07-2019 21:50:00 18.1 C 14.52 g/m*3 18.1 C 0 km/h
552 28-07-2019 21:55:00 18.1 C 14.52 g/m*3 18.1 C 0 km/h
553 28-07-2019 22:00:00 18.1 C 14.52 g/m*3 18.1 C 0 km/h
554 28-07-2019 22:05:00 18.1 C 14.52 g/m*3 18.1 C 0 km/h
555 28-07-2019 22:10:00 18 C 14.44 g/m*3 18 C 0 km/h
556 28-07-2019 22:15:00 17.9 C 14.5 g/m*3 17.9 C 0 km/h
557 28-07-2019 22:20:00 17.9 C 14.5 g/m*3 17.9 C 1.6 km/h
558 28-07-2019 22:25:00 17.9 C 14.5 g/m*3 17.9 C 0 km/h
559 28-07-2019 22:30:00 17.9 C 14.5 g/m*3 17.9 C 3.2 km/h
560 28-07-2019 22:35:00 17.9 C 14.5 g/m*3 17.9 C 0 km/h
561 28-07-2019 22:40:00 17.8 C 14.42 g/m*3 17.8 C 0 km/h
562 28-07-2019 22:45:00 17.8 C 14.42 g/m*3 17.8 C 0 km/h
563 28-07-2019 22:50:00 17.8 C 14.42 g/m*3 17.8 C 0 km/h
564 28-07-2019 22:55:00 17.8 C 14.42 g/m*3 17.8 C 0 km/h
565 28-07-2019 23:00:00 17.7 C 14.33 g/m*3 17.7 C 0 km/h
566 28-07-2019 23:05:00 17.7 C 14.33 g/m*3 17.7 C 0 km/h
567 28-07-2019 23:10:00 17.7 C 14.33 g/m*3 17.7 C 0 km/h
568 28-07-2019 23:15:00 17.7 C 14.33 g/m*3 17.7 C 0 km/h
569 28-07-2019 23:20:00 17.7 C 14.33 g/m*3 17.7 C 0 km/h
570 28-07-2019 23:25:00 17.6 C 14.25 g/m*3 17.6 C 0 km/h
571 28-07-2019 23:30:00 17.6 C 14.25 g/m*3 17.6 C 0 km/h
572 28-07-2019 23:35:00 17.6 C 14.25 g/m*3 17.6 C 0 km/h
573 28-07-2019 23:40:00 17.5 C 14.16 g/m*3 17.5 C 0 km/h
574 28-07-2019 23:45:00 17.5 C 14.16 g/m*3 17.5 C 0 km/h
575 28-07-2019 23:50:00 17.4 C 14.08 g/m*3 17.4 C 0 km/h
Sensor: Nr:Datum:Temp:Abs-Feuchte:Windchill:Wind:
Aussen-T/F 576 28-07-2019 23:55:00 17.5 C 14.16 g/m*3 17.5 C 0 km/h
577 29-07-2019 00:00:00 17.4 C 14.08 g/m*3 17.4 C 0 km/h
578 29-07-2019 00:05:00 17.4 C 14.08 g/m*3 17.4 C 0 km/h
579 29-07-2019 00:10:00 17.4 C 14.08 g/m*3 17.4 C 0 km/h
580 29-07-2019 00:15:00 17.4 C 14.08 g/m*3 17.4 C 0 km/h
581 29-07-2019 00:20:00 17.4 C 14.08 g/m*3 17.4 C 0 km/h
582 29-07-2019 00:25:00 17.4 C 14.08 g/m*3 17.4 C 0 km/h
583 29-07-2019 00:30:00 17.3 C 14 g/m*3 17.3 C 0 km/h
584 29-07-2019 00:35:00 17.3 C 14 g/m*3 17.3 C 0 km/h
585 29-07-2019 00:40:00 17.3 C 14 g/m*3 17.3 C 0 km/h
586 29-07-2019 00:45:00 17.2 C 13.91 g/m*3 17.2 C 0 km/h
587 29-07-2019 00:50:00 17.2 C 13.91 g/m*3 17.2 C 0 km/h
588 29-07-2019 00:55:00 17.2 C 13.91 g/m*3 17.2 C 1.6 km/h
589 29-07-2019 01:00:00 17.1 C 13.83 g/m*3 17.1 C 0 km/h
590 29-07-2019 01:05:00 17.2 C 13.91 g/m*3 17.2 C 6.4 km/h
591 29-07-2019 01:10:00 17.1 C 13.83 g/m*3 17.1 C 6.4 km/h
592 29-07-2019 01:15:00 17.1 C 13.83 g/m*3 17.1 C 0 km/h
593 29-07-2019 01:20:00 17.1 C 13.83 g/m*3 17.1 C 0 km/h
594 29-07-2019 01:25:00 17.1 C 13.83 g/m*3 17.1 C 0 km/h
595 29-07-2019 01:30:00 17.1 C 13.83 g/m*3 17.1 C 0 km/h
596 29-07-2019 01:35:00 17.1 C 13.83 g/m*3 17.1 C 0 km/h
597 29-07-2019 01:40:00 17.1 C 13.83 g/m*3 17.1 C 3.2 km/h
598 29-07-2019 01:45:00 17.1 C 13.83 g/m*3 17.1 C 0 km/h
599 29-07-2019 01:50:00 17.1 C 13.83 g/m*3 17.1 C 0 km/h
600 29-07-2019 01:55:00 17.1 C 13.83 g/m*3 17.1 C 0 km/h
Sensor: Nr:Datum:Temp:Abs-Feuchte:Windchill:Wind:
Aussen-T/F 601 29-07-2019 02:00:00 17.1 C 13.83 g/m*3 17.1 C 0 km/h
602 29-07-2019 02:05:00 17 C 13.75 g/m*3 17 C 0 km/h
603 29-07-2019 02:10:00 17 C 13.75 g/m*3 17 C 0 km/h
604 29-07-2019 02:15:00 17 C 13.89 g/m*3 17 C 0 km/h
605 29-07-2019 02:20:00 17 C 13.89 g/m*3 17 C 0 km/h
606 29-07-2019 02:25:00 17 C 13.89 g/m*3 17 C 0 km/h
607 29-07-2019 02:30:00 17 C 13.89 g/m*3 17 C 0 km/h
608 29-07-2019 02:35:00 17 C 13.89 g/m*3 17 C 0 km/h
609 29-07-2019 02:40:00 16.9 C 13.81 g/m*3 16.9 C 0 km/h
610 29-07-2019 02:45:00 16.9 C 13.81 g/m*3 16.9 C 0 km/h
611 29-07-2019 02:50:00 16.9 C 13.81 g/m*3 16.9 C 0 km/h
612 29-07-2019 02:55:00 16.9 C 13.81 g/m*3 16.9 C 0 km/h
613 29-07-2019 03:00:00 16.9 C 13.81 g/m*3 16.9 C 0 km/h
614 29-07-2019 03:05:00 16.9 C 13.81 g/m*3 16.9 C 0 km/h
615 29-07-2019 03:10:00 16.9 C 13.81 g/m*3 16.9 C 0 km/h
616 29-07-2019 03:15:00 16.9 C 13.81 g/m*3 16.9 C 0 km/h
617 29-07-2019 03:20:00 16.9 C 13.81 g/m*3 16.9 C 0 km/h
618 29-07-2019 03:25:00 16.8 C 13.73 g/m*3 16.8 C 0 km/h
619 29-07-2019 03:30:00 16.8 C 13.73 g/m*3 16.8 C 0 km/h
620 29-07-2019 03:35:00 16.8 C 13.73 g/m*3 16.8 C 0 km/h
621 29-07-2019 03:40:00 16.8 C 13.73 g/m*3 16.8 C 0 km/h
622 29-07-2019 03:45:00 16.8 C 13.73 g/m*3 16.8 C 0 km/h
623 29-07-2019 03:50:00 16.8 C 13.73 g/m*3 16.8 C 0 km/h
624 29-07-2019 03:55:00 16.8 C 13.73 g/m*3 16.8 C 0 km/h
625 29-07-2019 04:00:00 16.9 C 13.81 g/m*3 16.9 C 0 km/h
Sensor: Nr:Datum:Temp:Abs-Feuchte:Windchill:Wind:
Aussen-T/F 626 29-07-2019 04:05:00 16.8 C 13.73 g/m*3 16.8 C 0 km/h
627 29-07-2019 04:10:00 16.8 C 13.73 g/m*3 16.8 C 0 km/h
628 29-07-2019 04:15:00 16.8 C 13.73 g/m*3 16.8 C 0 km/h
629 29-07-2019 04:20:00 16.8 C 13.73 g/m*3 16.8 C 0 km/h
630 29-07-2019 04:25:00 16.8 C 13.73 g/m*3 16.8 C 0 km/h
631 29-07-2019 04:30:00 16.8 C 13.73 g/m*3 16.8 C 0 km/h
632 29-07-2019 04:35:00 16.8 C 13.73 g/m*3 16.8 C 0 km/h
633 29-07-2019 04:40:00 16.8 C 13.73 g/m*3 16.8 C 0 km/h
634 29-07-2019 04:45:00 16.8 C 13.73 g/m*3 16.8 C 0 km/h
635 29-07-2019 04:50:00 16.8 C 13.73 g/m*3 16.8 C 0 km/h
636 29-07-2019 04:55:00 16.8 C 13.73 g/m*3 16.8 C 0 km/h
637 29-07-2019 05:00:00 16.8 C 13.73 g/m*3 16.8 C 0 km/h
638 29-07-2019 05:05:00 16.8 C 13.73 g/m*3 16.8 C 0 km/h
639 29-07-2019 05:10:00 16.8 C 13.73 g/m*3 16.8 C 0 km/h
640 29-07-2019 05:15:00 16.8 C 13.73 g/m*3 16.8 C 0 km/h
641 29-07-2019 05:20:00 16.8 C 13.73 g/m*3 16.8 C 0 km/h
642 29-07-2019 05:25:00 16.7 C 13.64 g/m*3 16.7 C 0 km/h
643 29-07-2019 05:30:00 16.7 C 13.64 g/m*3 16.7 C 0 km/h
644 29-07-2019 05:35:00 16.7 C 13.64 g/m*3 16.7 C 0 km/h
645 29-07-2019 05:40:00 16.7 C 13.64 g/m*3 16.7 C 0 km/h
646 29-07-2019 05:45:00 16.7 C 13.64 g/m*3 16.7 C 0 km/h
647 29-07-2019 05:50:00 16.7 C 13.64 g/m*3 16.7 C 0 km/h
648 29-07-2019 05:55:00 16.7 C 13.64 g/m*3 16.7 C 0 km/h
649 29-07-2019 06:00:00 16.7 C 13.64 g/m*3 16.7 C 0 km/h
650 29-07-2019 06:05:00 16.7 C 13.64 g/m*3 16.7 C 0 km/h
Sensor: Nr:Datum:Temp:Abs-Feuchte:Windchill:Wind:
Aussen-T/F 651 29-07-2019 06:10:00 16.7 C 13.64 g/m*3 16.7 C 0 km/h
652 29-07-2019 06:15:00 16.7 C 13.64 g/m*3 16.7 C 0 km/h
653 29-07-2019 06:20:00 16.7 C 13.64 g/m*3 16.7 C 0 km/h
654 29-07-2019 06:25:00 16.7 C 13.64 g/m*3 16.7 C 0 km/h
655 29-07-2019 06:30:00 16.7 C 13.64 g/m*3 16.7 C 0 km/h
656 29-07-2019 06:35:00 16.7 C 13.64 g/m*3 16.7 C 0 km/h
657 29-07-2019 06:40:00 16.7 C 13.64 g/m*3 16.7 C 0 km/h
658 29-07-2019 06:45:00 16.8 C 13.73 g/m*3 16.8 C 0 km/h
659 29-07-2019 06:50:00 16.8 C 13.73 g/m*3 16.8 C 0 km/h
660 29-07-2019 06:55:00 16.8 C 13.73 g/m*3 16.8 C 0 km/h
661 29-07-2019 07:00:00 16.9 C 13.81 g/m*3 16.9 C 0 km/h
662 29-07-2019 07:05:00 16.9 C 13.81 g/m*3 16.9 C 0 km/h
663 29-07-2019 07:10:00 16.9 C 13.81 g/m*3 16.9 C 0 km/h
664 29-07-2019 07:15:00 17 C 13.89 g/m*3 17 C 0 km/h
665 29-07-2019 07:20:00 17.1 C 13.97 g/m*3 17.1 C 3.2 km/h
666 29-07-2019 07:25:00 17.1 C 13.97 g/m*3 17.1 C 3.2 km/h
667 29-07-2019 07:30:00 16.9 C 13.81 g/m*3 16.9 C 4.8 km/h
668 29-07-2019 07:35:00 16.9 C 13.81 g/m*3 16.9 C 4.8 km/h
669 29-07-2019 07:40:00 17 C 13.89 g/m*3 17 C 3.2 km/h
670 29-07-2019 07:45:00 17 C 13.75 g/m*3 17 C 4.8 km/h
671 29-07-2019 07:50:00 17.1 C 13.83 g/m*3 17.1 C 1.6 km/h
672 29-07-2019 07:55:00 17.1 C 13.83 g/m*3 17.1 C 0 km/h
673 29-07-2019 08:00:00 17.2 C 13.91 g/m*3 17.2 C 1.6 km/h
674 29-07-2019 08:05:00 17.2 C 13.77 g/m*3 17.2 C 0 km/h
675 29-07-2019 08:10:00 17.3 C 13.85 g/m*3 17.3 C 3.2 km/h
Sensor: Nr:Datum:Temp:Abs-Feuchte:Windchill:Wind:
Aussen-T/F 676 29-07-2019 08:15:00 17.3 C 13.7 g/m*3 17.3 C 3.2 km/h
677 29-07-2019 08:20:00 17.4 C 13.93 g/m*3 17.4 C 0 km/h
678 29-07-2019 08:25:00 17.4 C 13.78 g/m*3 17.4 C 0 km/h
679 29-07-2019 08:30:00 17.4 C 13.63 g/m*3 17.4 C 0 km/h
680 29-07-2019 08:35:00 17.6 C 13.8 g/m*3 17.6 C 0 km/h
681 29-07-2019 08:40:00 17.6 C 13.8 g/m*3 17.6 C 0 km/h
682 29-07-2019 08:45:00 17.6 C 13.65 g/m*3 17.6 C 1.6 km/h
683 29-07-2019 08:50:00 17.7 C 13.58 g/m*3 17.7 C 3.2 km/h
684 29-07-2019 08:55:00 17.9 C 13.89 g/m*3 17.9 C 3.2 km/h
685 29-07-2019 09:00:00 18 C 13.82 g/m*3 18 C 0 km/h
686 29-07-2019 09:05:00 18.2 C 13.99 g/m*3 18.2 C 4.8 km/h
687 29-07-2019 09:10:00 18.2 C 13.68 g/m*3 18.2 C 8.1 km/h
688 29-07-2019 09:15:00 18.3 C 13.76 g/m*3 18.3 C 0 km/h
689 29-07-2019 09:20:00 18.3 C 13.76 g/m*3 18.3 C 1.6 km/h
690 29-07-2019 09:25:00 18.4 C 13.68 g/m*3 18.4 C 9.7 km/h
691 29-07-2019 09:30:00 18.6 C 13.69 g/m*3 18.6 C 11.3 km/h
692 29-07-2019 09:35:00 18.7 C 13.77 g/m*3 18.7 C 9.7 km/h
693 29-07-2019 09:40:00 18.8 C 13.53 g/m*3 18.8 C 9.7 km/h
694 29-07-2019 09:45:00 18.8 C 13.37 g/m*3 18.8 C 6.4 km/h
695 29-07-2019 09:50:00 18.8 C 13.37 g/m*3 18.8 C 4.8 km/h
696 29-07-2019 09:55:00 18.8 C 13.37 g/m*3 18.8 C 6.4 km/h
697 29-07-2019 10:00:00 18.8 C 13.21 g/m*3 18.8 C 4.8 km/h
698 29-07-2019 10:05:00 18.8 C 13.37 g/m*3 18.8 C 4.8 km/h
699 29-07-2019 10:10:00 18.9 C 13.45 g/m*3 18.9 C 4.8 km/h
700 29-07-2019 10:15:00 19.1 C 13.28 g/m*3 19.1 C 6.4 km/h
Sensor: Nr:Datum:Temp:Abs-Feuchte:Windchill:Wind:
Aussen-T/F 701 29-07-2019 10:20:00 19.3 C 13.27 g/m*3 19.3 C 6.4 km/h
702 29-07-2019 10:25:00 19.4 C 13.18 g/m*3 19.4 C 9.7 km/h
703 29-07-2019 10:30:00 19.5 C 13.26 g/m*3 19.5 C 4.8 km/h
704 29-07-2019 10:35:00 19.7 C 13.41 g/m*3 19.7 C 6.4 km/h
705 29-07-2019 10:40:00 19.7 C 13.08 g/m*3 19.7 C 6.4 km/h
706 29-07-2019 10:45:00 19.8 C 13.32 g/m*3 19.8 C 6.4 km/h
707 29-07-2019 10:50:00 19.8 C 12.98 g/m*3 19.8 C 3.2 km/h
708 29-07-2019 10:55:00 19.9 C 12.89 g/m*3 19.9 C 8.1 km/h
709 29-07-2019 11:00:00 19.9 C 12.89 g/m*3 19.9 C 4.8 km/h
710 29-07-2019 11:05:00 20 C 13.13 g/m*3 20 C 8.1 km/h
711 29-07-2019 11:10:00 20 C 12.96 g/m*3 20 C 8.1 km/h
712 29-07-2019 11:15:00 20.1 C 13.04 g/m*3 20.1 C 4.8 km/h
713 29-07-2019 11:20:00 20.2 C 13.11 g/m*3 20.2 C 4.8 km/h
714 29-07-2019 11:25:00 20.3 C 13.37 g/m*3 20.3 C 8.1 km/h
715 29-07-2019 11:30:00 20.4 C 13.09 g/m*3 20.4 C 11.3 km/h
716 29-07-2019 11:35:00 20.6 C 13.07 g/m*3 20.6 C 4.8 km/h
717 29-07-2019 11:40:00 20.8 C 13.04 g/m*3 20.8 C 4.8 km/h
718 29-07-2019 11:45:00 21 C 13.19 g/m*3 21 C 6.4 km/h
719 29-07-2019 11:50:00 21.2 C 13.34 g/m*3 21.2 C 6.4 km/h
720 29-07-2019 11:55:00 21.2 C 12.97 g/m*3 21.2 C 9.7 km/h
721 29-07-2019 12:00:00 21.4 C 12.75 g/m*3 21.4 C 11.3 km/h
722 29-07-2019 12:05:00 21.5 C 12.63 g/m*3 21.5 C 6.4 km/h
723 29-07-2019 12:10:00 21.6 C 13.09 g/m*3 21.6 C 3.2 km/h
724 29-07-2019 12:15:00 21.6 C 12.9 g/m*3 21.6 C 1.6 km/h
725 29-07-2019 12:20:00 21.8 C 13.05 g/m*3 21.8 C 9.7 km/h
Sensor: Nr:Datum:Temp:Abs-Feuchte:Windchill:Wind:
Aussen-T/F 726 29-07-2019 12:25:00 21.9 C 12.74 g/m*3 21.9 C 9.7 km/h
727 29-07-2019 12:30:00 22.1 C 12.88 g/m*3 22.1 C 11.3 km/h
728 29-07-2019 12:35:00 22.1 C 12.69 g/m*3 22.1 C 9.7 km/h
729 29-07-2019 12:40:00 22.2 C 12.96 g/m*3 22.2 C 8.1 km/h
730 29-07-2019 12:45:00 22.3 C 12.83 g/m*3 22.3 C 8.1 km/h
731 29-07-2019 12:50:00 22.4 C 12.91 g/m*3 22.4 C 8.1 km/h
732 29-07-2019 12:55:00 22.5 C 12.78 g/m*3 22.5 C 8.1 km/h
733 29-07-2019 13:00:00 22.6 C 13.06 g/m*3 22.6 C 8.1 km/h
734 29-07-2019 13:05:00 22.7 C 12.73 g/m*3 22.7 C 9.7 km/h
735 29-07-2019 13:10:00 22.8 C 13 g/m*3 22.8 C 6.4 km/h
736 29-07-2019 13:15:00 23 C 12.54 g/m*3 23 C 11.3 km/h
737 29-07-2019 13:20:00 23.2 C 12.68 g/m*3 23.2 C 9.7 km/h
738 29-07-2019 13:25:00 23.3 C 12.96 g/m*3 23.3 C 6.4 km/h
739 29-07-2019 13:30:00 23.5 C 12.9 g/m*3 23.5 C 9.7 km/h
740 29-07-2019 13:35:00 23.6 C 13.19 g/m*3 23.6 C 8.1 km/h
741 29-07-2019 13:40:00 23.5 C 13.11 g/m*3 23.5 C 6.4 km/h
742 29-07-2019 13:45:00 23.5 C 13.11 g/m*3 23.5 C 4.8 km/h
743 29-07-2019 13:50:00 23.6 C 12.97 g/m*3 23.6 C 8.1 km/h
744 29-07-2019 13:55:00 23.7 C 12.83 g/m*3 23.7 C 9.7 km/h
745 29-07-2019 14:00:00 23.7 C 12.83 g/m*3 23.7 C 3.2 km/h
746 29-07-2019 14:05:00 23.8 C 12.91 g/m*3 23.8 C 8.1 km/h
747 29-07-2019 14:10:00 23.9 C 13.2 g/m*3 23.9 C 1.6 km/h
748 29-07-2019 14:15:00 24.2 C 12.98 g/m*3 24.2 C 11.3 km/h
749 29-07-2019 14:20:00 24.4 C 12.91 g/m*3 24.4 C 11.3 km/h
750 29-07-2019 14:25:00 24.5 C 12.98 g/m*3 24.5 C 8.1 km/h
Sensor: Nr:Datum:Temp:Abs-Feuchte:Windchill:Wind:
Aussen-T/F 751 29-07-2019 14:30:00 24.7 C 12.68 g/m*3 24.7 C 6.4 km/h
752 29-07-2019 14:35:00 24.7 C 12.9 g/m*3 24.7 C 0 km/h
753 29-07-2019 14:40:00 24.7 C 12.9 g/m*3 24.7 C 3.2 km/h
754 29-07-2019 14:45:00 24.8 C 12.29 g/m*3 24.8 C 9.7 km/h
755 29-07-2019 14:50:00 24.8 C 12.52 g/m*3 24.8 C 4.8 km/h
756 29-07-2019 14:55:00 24.8 C 12.52 g/m*3 24.8 C 11.3 km/h
757 29-07-2019 15:00:00 24.8 C 12.29 g/m*3 24.8 C 9.7 km/h
758 29-07-2019 15:05:00 24.9 C 12.36 g/m*3 24.9 C 6.4 km/h
759 29-07-2019 15:10:00 25.1 C 12.5 g/m*3 25.1 C 12.9 km/h
760 29-07-2019 15:15:00 25.4 C 12.48 g/m*3 25.4 C 12.9 km/h
761 29-07-2019 15:20:00 25.6 C 12.38 g/m*3 25.6 C 9.7 km/h
762 29-07-2019 15:25:00 25.7 C 12.21 g/m*3 25.7 C 11.3 km/h
763 29-07-2019 15:30:00 25.9 C 12.35 g/m*3 25.9 C 14.5 km/h
764 29-07-2019 15:35:00 26.1 C 12.49 g/m*3 26.1 C 14.5 km/h
765 29-07-2019 15:40:00 26.1 C 12.24 g/m*3 26.1 C 12.9 km/h
766 29-07-2019 15:45:00 26.4 C 12.45 g/m*3 26.4 C 9.7 km/h
767 29-07-2019 15:50:00 26.8 C 12.47 g/m*3 26.8 C 6.4 km/h
768 29-07-2019 15:55:00 27.2 C 12.49 g/m*3 27.2 C 9.7 km/h
769 29-07-2019 16:00:00 27.3 C 12.3 g/m*3 27.3 C 8.1 km/h
770 29-07-2019 16:05:00 27.4 C 12.37 g/m*3 27.4 C 9.7 km/h
771 29-07-2019 16:10:00 27.6 C 12.24 g/m*3 27.6 C 8.1 km/h
772 29-07-2019 16:15:00 27.3 C 12.3 g/m*3 27.3 C 9.7 km/h
773 29-07-2019 16:20:00 27.2 C 12.23 g/m*3 27.2 C 6.4 km/h
774 29-07-2019 16:25:00 27.2 C 11.97 g/m*3 27.2 C 12.9 km/h
775 29-07-2019 16:30:00 27.3 C 12.3 g/m*3 27.3 C 3.2 km/h
Sensor: Nr:Datum:Temp:Abs-Feuchte:Windchill:Wind:
Aussen-T/F 776 29-07-2019 16:35:00 27.7 C 12.04 g/m*3 27.7 C 8.1 km/h
777 29-07-2019 16:40:00 27.9 C 12.17 g/m*3 27.9 C 6.4 km/h
778 29-07-2019 16:45:00 28.2 C 12.1 g/m*3 28.2 C 6.4 km/h
779 29-07-2019 16:50:00 28.2 C 12.1 g/m*3 28.2 C 4.8 km/h
780 29-07-2019 16:55:00 27.9 C 11.9 g/m*3 27.9 C 9.7 km/h
781 29-07-2019 17:00:00 27.9 C 12.17 g/m*3 27.9 C 11.3 km/h
782 29-07-2019 17:05:00 28 C 12.24 g/m*3 28 C 8.1 km/h
783 29-07-2019 17:10:00 28.3 C 12.16 g/m*3 28.3 C 8.1 km/h
784 29-07-2019 17:15:00 28.4 C 11.95 g/m*3 28.4 C 11.3 km/h
785 29-07-2019 17:20:00 28.3 C 11.61 g/m*3 28.3 C 6.4 km/h
786 29-07-2019 17:25:00 28.4 C 11.95 g/m*3 28.4 C 9.7 km/h
787 29-07-2019 17:30:00 28.4 C 11.67 g/m*3 28.4 C 6.4 km/h
788 29-07-2019 17:35:00 28.4 C 11.95 g/m*3 28.4 C 4.8 km/h
789 29-07-2019 17:40:00 28.6 C 12.08 g/m*3 28.6 C 9.7 km/h
790 29-07-2019 17:45:00 28.3 C 11.89 g/m*3 28.3 C 8.1 km/h
791 29-07-2019 17:50:00 28.1 C 11.76 g/m*3 28.1 C 4.8 km/h
792 29-07-2019 17:55:00 27.7 C 11.5 g/m*3 27.7 C 4.8 km/h
793 29-07-2019 18:00:00 27.4 C 11.58 g/m*3 27.4 C 11.3 km/h
794 29-07-2019 18:05:00 27.2 C 11.45 g/m*3 27.2 C 4.8 km/h
795 29-07-2019 18:10:00 27.1 C 11.65 g/m*3 27.1 C 3.2 km/h
796 29-07-2019 18:15:00 27.3 C 11.77 g/m*3 27.3 C 4.8 km/h
797 29-07-2019 18:20:00 27.4 C 11.58 g/m*3 27.4 C 4.8 km/h
798 29-07-2019 18:25:00 27.4 C 11.58 g/m*3 27.4 C 1.6 km/h
799 29-07-2019 18:30:00 27.4 C 11.58 g/m*3 27.4 C 3.2 km/h
800 29-07-2019 18:35:00 27.7 C 11.77 g/m*3 27.7 C 3.2 km/h
Sensor: Nr:Datum:Temp:Abs-Feuchte:Windchill:Wind:
Aussen-T/F 801 29-07-2019 18:40:00 28 C 11.69 g/m*3 28 C 6.4 km/h
802 29-07-2019 18:45:00 28.3 C 11.61 g/m*3 28.3 C 4.8 km/h
803 29-07-2019 18:50:00 28.6 C 11.8 g/m*3 28.6 C 6.4 km/h
804 29-07-2019 18:55:00 28.7 C 11.59 g/m*3 28.7 C 4.8 km/h
805 29-07-2019 19:00:00 28.8 C 11.65 g/m*3 28.8 C 6.4 km/h
806 29-07-2019 19:05:00 28.9 C 12 g/m*3 28.9 C 4.8 km/h
807 29-07-2019 19:10:00 28.9 C 11.71 g/m*3 28.9 C 4.8 km/h
808 29-07-2019 19:15:00 28.8 C 11.65 g/m*3 28.8 C 4.8 km/h
809 29-07-2019 19:20:00 28.6 C 11.8 g/m*3 28.6 C 9.7 km/h
810 29-07-2019 19:25:00 28.1 C 11.76 g/m*3 28.1 C 8.1 km/h
811 29-07-2019 19:30:00 27.9 C 11.9 g/m*3 27.9 C 6.4 km/h
812 29-07-2019 19:35:00 27.7 C 11.77 g/m*3 27.7 C 8.1 km/h
813 29-07-2019 19:40:00 27.6 C 11.97 g/m*3 27.6 C 6.4 km/h
814 29-07-2019 19:45:00 27.4 C 12.1 g/m*3 27.4 C 4.8 km/h
815 29-07-2019 19:50:00 27.3 C 11.77 g/m*3 27.3 C 6.4 km/h
816 29-07-2019 19:55:00 27.2 C 11.97 g/m*3 27.2 C 4.8 km/h
817 29-07-2019 20:00:00 27.1 C 11.9 g/m*3 27.1 C 6.4 km/h
818 29-07-2019 20:05:00 27 C 12.1 g/m*3 27 C 6.4 km/h
819 29-07-2019 20:10:00 26.8 C 11.96 g/m*3 26.8 C 8.1 km/h
820 29-07-2019 20:15:00 26.6 C 12.08 g/m*3 26.6 C 6.4 km/h
821 29-07-2019 20:20:00 26.4 C 12.2 g/m*3 26.4 C 6.4 km/h
822 29-07-2019 20:25:00 26.3 C 12.13 g/m*3 26.3 C 4.8 km/h
823 29-07-2019 20:30:00 26.3 C 12.38 g/m*3 26.3 C 3.2 km/h
824 29-07-2019 20:35:00 26.2 C 12.31 g/m*3 26.2 C 0 km/h
825 29-07-2019 20:40:00 26 C 12.17 g/m*3 26 C 0 km/h
Sensor: Nr:Datum:Temp:Abs-Feuchte:Windchill:Wind:
Aussen-T/F 826 29-07-2019 20:45:00 25.9 C 12.35 g/m*3 25.9 C 0 km/h
827 29-07-2019 20:50:00 25.8 C 12.28 g/m*3 25.8 C 0 km/h
828 29-07-2019 20:55:00 25.6 C 12.38 g/m*3 25.6 C 0 km/h
829 29-07-2019 21:00:00 25.3 C 12.88 g/m*3 25.3 C 0 km/h
830 29-07-2019 21:05:00 24.9 C 12.82 g/m*3 24.9 C 0 km/h
831 29-07-2019 21:10:00 24.5 C 13.2 g/m*3 24.5 C 0 km/h
832 29-07-2019 21:15:00 24 C 12.84 g/m*3 24 C 0 km/h
833 29-07-2019 21:20:00 23.5 C 12.69 g/m*3 23.5 C 0 km/h
834 29-07-2019 21:25:00 23 C 12.54 g/m*3 23 C 0 km/h
835 29-07-2019 21:30:00 22.6 C 12.66 g/m*3 22.6 C 0 km/h
836 29-07-2019 21:35:00 22.2 C 12.57 g/m*3 22.2 C 0 km/h
837 29-07-2019 21:40:00 21.9 C 12.54 g/m*3 21.9 C 0 km/h
838 29-07-2019 21:45:00 21.8 C 12.66 g/m*3 21.8 C 0 km/h
839 29-07-2019 21:50:00 21.6 C 12.52 g/m*3 21.6 C 0 km/h
840 29-07-2019 21:55:00 21.4 C 12.37 g/m*3 21.4 C 0 km/h
841 29-07-2019 22:00:00 21.3 C 12.49 g/m*3 21.3 C 0 km/h
842 29-07-2019 22:05:00 21.2 C 12.6 g/m*3 21.2 C 0 km/h
843 29-07-2019 22:10:00 21.1 C 12.53 g/m*3 21.1 C 0 km/h
844 29-07-2019 22:15:00 21 C 12.46 g/m*3 21 C 0 km/h
845 29-07-2019 22:20:00 20.9 C 12.38 g/m*3 20.9 C 0 km/h
846 29-07-2019 22:25:00 20.8 C 12.49 g/m*3 20.8 C 0 km/h
847 29-07-2019 22:30:00 20.8 C 12.67 g/m*3 20.8 C 0 km/h
848 29-07-2019 22:35:00 20.7 C 12.78 g/m*3 20.7 C 0 km/h
849 29-07-2019 22:40:00 20.6 C 12.71 g/m*3 20.6 C 0 km/h
850 29-07-2019 22:45:00 20.4 C 12.56 g/m*3 20.4 C 0 km/h
Sensor: Nr:Datum:Temp:Abs-Feuchte:Windchill:Wind:
Aussen-T/F 851 29-07-2019 22:50:00 20.2 C 12.59 g/m*3 20.2 C 0 km/h
852 29-07-2019 22:55:00 20.1 C 12.69 g/m*3 20.1 C 0 km/h
853 29-07-2019 23:00:00 20 C 12.62 g/m*3 20 C 0 km/h
854 29-07-2019 23:05:00 19.9 C 12.54 g/m*3 19.9 C 0 km/h
855 29-07-2019 23:10:00 19.8 C 12.64 g/m*3 19.8 C 0 km/h
856 29-07-2019 23:15:00 19.7 C 12.74 g/m*3 19.7 C 0 km/h
857 29-07-2019 23:20:00 19.6 C 12.66 g/m*3 19.6 C 0 km/h
858 29-07-2019 23:25:00 19.4 C 12.51 g/m*3 19.4 C 0 km/h
859 29-07-2019 23:30:00 19.3 C 12.61 g/m*3 19.3 C 0 km/h
860 29-07-2019 23:35:00 19.1 C 12.46 g/m*3 19.1 C 0 km/h
861 29-07-2019 23:40:00 19 C 12.55 g/m*3 19 C 0 km/h
862 29-07-2019 23:45:00 18.8 C 12.4 g/m*3 18.8 C 0 km/h
863 29-07-2019 23:50:00 18.8 C 12.56 g/m*3 18.8 C 0 km/h
864 29-07-2019 23:55:00 18.7 C 12.49 g/m*3 18.7 C 0 km/h

Legende:
   Min
   Max


Maximal/Minimal-Werte vom 26.03.2019 - 28.04.2019

Sensor Min Max Avg
Temp
(Aussen-T/F)
0.3 °C
14-04-2019  00:50:00
26.6 °C
24-04-2019  17:05:00
10.45 °C

Die Daten stammen von einer Davis Vantage Pro 2 Wetter-Station und werden unter Linux mit der Software wview2wettercgi und aufbereitet. Alle Angaben erfolgen ohne Gewähr für ihre Vollständigkeit oder Richtigkeit.
Kontakt: Rainer Krienke krienke@uni-koblenz.de . Meine Webseiten an der Uni Koblenz oder privat.
Version: $Revision: 0.78 $